createdAt,value
2023-02-11T00:00:17.449Z,71.75
2023-02-11T00:02:50.337Z,57.53
2023-02-11T00:05:23.998Z,72.95
2023-02-11T00:07:57.277Z,66.32
2023-02-11T00:10:31.282Z,57.60
2023-02-11T00:13:04.258Z,64.47
2023-02-11T00:15:37.723Z,64.93
2023-02-11T00:18:10.285Z,61.25
2023-02-11T00:20:43.294Z,64.65
2023-02-11T00:23:16.328Z,67.47
2023-02-11T00:25:49.883Z,57.00
2023-02-11T00:28:23.325Z,67.20
2023-02-11T00:31:02.613Z,64.32
2023-02-11T00:33:36.875Z,75.10
2023-02-11T00:36:17.975Z,65.72
2023-02-11T00:38:53.043Z,67.32
2023-02-11T00:41:23.523Z,76.45
2023-02-11T00:43:58.886Z,66.78
2023-02-11T00:46:29.171Z,69.25
2023-02-11T00:49:02.298Z,66.25
2023-02-11T00:51:32.789Z,72.78
2023-02-11T00:54:04.192Z,75.65
2023-02-11T00:56:42.876Z,81.32
2023-02-11T00:59:13.586Z,65.35
2023-02-11T01:01:43.915Z,71.03
2023-02-11T01:04:17.278Z,66.50
2023-02-11T01:06:51.292Z,74.55
2023-02-11T01:09:25.258Z,71.72
2023-02-11T01:11:58.615Z,83.32
2023-02-11T01:14:32.006Z,77.55
2023-02-11T01:17:02.324Z,76.45
2023-02-11T01:19:32.126Z,81.35
2023-02-11T01:21:58.539Z,74.07
2023-02-11T01:24:34.732Z,85.28
2023-02-11T01:27:07.843Z,78.22
2023-02-11T01:29:43.864Z,90.22
2023-02-11T01:32:14.632Z,75.95
2023-02-11T01:34:44.887Z,73.47
2023-02-11T01:37:17.391Z,80.55
2023-02-11T01:39:47.680Z,72.05
2023-02-11T01:42:23.387Z,78.43
2023-02-11T01:45:01.477Z,75.80
2023-02-11T01:47:31.295Z,75.57
2023-02-11T01:50:05.214Z,69.68
2023-02-11T01:52:40.613Z,77.93
2023-02-11T01:55:36.152Z,73.30
2023-02-11T01:58:09.357Z,75.32
2023-02-11T02:00:43.533Z,76.13
2023-02-11T02:03:20.199Z,84.45
2023-02-11T02:06:20.790Z,78.80
2023-02-11T02:09:16.350Z,75.70
2023-02-11T02:11:49.861Z,66.07
2023-02-11T02:14:26.499Z,77.03
2023-02-11T02:16:59.938Z,73.88
2023-02-11T02:19:57.749Z,67.35
2023-02-11T02:22:52.569Z,61.47
2023-02-11T02:25:47.979Z,65.82
2023-02-11T02:28:42.494Z,68.30
2023-02-11T02:31:27.226Z,67.13
2023-02-11T02:34:12.517Z,68.05
2023-02-11T02:37:12.106Z,77.93
2023-02-11T02:39:47.022Z,64.20
2023-02-11T02:42:22.261Z,65.43
2023-02-11T02:44:57.094Z,60.58
2023-02-11T02:47:30.304Z,73.03
2023-02-11T02:50:03.518Z,56.55
2023-02-11T02:52:54.525Z,67.75
2023-02-11T02:55:47.167Z,65.18
2023-02-11T02:58:49.889Z,62.67
2023-02-11T03:01:42.507Z,55.03
2023-02-11T03:04:27.238Z,58.75
2023-02-11T03:07:29.704Z,59.35
2023-02-11T03:10:06.132Z,58.22
2023-02-11T03:12:37.916Z,60.60
2023-02-11T03:15:12.401Z,63.10
2023-02-11T03:17:45.270Z,55.95
2023-02-11T03:20:22.787Z,62.65
2023-02-11T03:23:31.605Z,74.20
2023-02-11T03:26:10.212Z,62.58
2023-02-11T03:29:07.972Z,67.90
2023-02-11T03:32:00.198Z,64.35
2023-02-11T03:34:51.514Z,56.75
2023-02-11T03:37:37.493Z,61.10
2023-02-11T03:40:20.579Z,68.00
2023-02-11T03:43:12.897Z,66.80
2023-02-11T03:45:50.126Z,61.15
2023-02-11T03:48:49.914Z,53.70
2023-02-11T03:51:26.045Z,55.45
2023-02-11T03:54:02.169Z,59.92
2023-02-11T03:56:45.205Z,47.40
2023-02-11T03:59:18.355Z,58.17
2023-02-11T04:01:51.585Z,60.95
2023-02-11T04:04:24.314Z,47.65
2023-02-11T04:06:58.881Z,51.10
2023-02-11T04:09:31.379Z,57.95
2023-02-11T04:12:05.327Z,46.05
2023-02-11T04:14:38.379Z,60.67
2023-02-11T04:17:12.609Z,59.20
2023-02-11T04:19:45.300Z,43.92
2023-02-11T04:22:20.057Z,53.17
2023-02-11T04:24:53.445Z,47.72
2023-02-11T04:27:27.308Z,46.95
2023-02-11T04:30:01.834Z,48.17
2023-02-11T04:32:34.613Z,52.20
2023-02-11T04:35:07.742Z,43.58
2023-02-11T04:37:38.310Z,44.90
2023-02-11T04:40:08.735Z,41.65
2023-02-11T04:42:44.746Z,46.92
2023-02-11T04:45:15.510Z,45.55
2023-02-11T04:47:52.085Z,55.10
2023-02-11T04:50:18.483Z,42.13
2023-02-11T04:52:47.848Z,52.67
2023-02-11T04:55:18.120Z,33.80
2023-02-11T04:57:51.342Z,51.15
2023-02-11T05:00:24.620Z,40.60
2023-02-11T05:02:57.350Z,41.00
2023-02-11T05:05:31.956Z,42.80
2023-02-11T05:08:04.553Z,42.53
2023-02-11T05:10:37.504Z,44.40
2023-02-11T05:13:10.313Z,45.78
2023-02-11T05:15:44.889Z,44.22
2023-02-11T05:18:17.317Z,44.53
2023-02-11T05:20:51.321Z,51.08
2023-02-11T05:23:24.312Z,37.70
2023-02-11T05:25:57.785Z,41.55
2023-02-11T05:28:31.309Z,53.70
2023-02-11T05:31:05.149Z,41.97
2023-02-11T05:33:38.357Z,40.60
2023-02-11T05:36:15.178Z,44.88
2023-02-11T05:38:48.357Z,46.00
2023-02-11T05:41:21.621Z,42.42
2023-02-11T05:43:54.333Z,47.25
2023-02-11T05:46:23.519Z,37.72
2023-02-11T05:48:53.370Z,39.38
2023-02-11T05:51:19.726Z,37.25
2023-02-11T05:53:55.951Z,40.70
2023-02-11T05:56:26.724Z,36.55
2023-02-11T05:58:56.957Z,35.10
2023-02-11T06:01:29.341Z,36.38
2023-02-11T06:04:02.524Z,36.00
2023-02-11T06:06:35.393Z,37.25
2023-02-11T06:09:08.961Z,32.50
2023-02-11T06:11:41.313Z,32.75
2023-02-11T06:14:14.499Z,36.20
2023-02-11T06:16:47.466Z,39.13
2023-02-11T06:19:20.970Z,41.70
2023-02-11T06:21:53.496Z,41.33
2023-02-11T06:24:47.862Z,38.75
2023-02-11T06:27:17.320Z,33.13
2023-02-11T06:29:46.549Z,40.00
2023-02-11T06:32:36.957Z,33.65
2023-02-11T06:35:12.918Z,37.90
2023-02-11T06:37:43.721Z,37.40
2023-02-11T06:40:19.570Z,33.72
2023-02-11T06:42:45.923Z,33.75
2023-02-11T06:45:15.435Z,30.15
2023-02-11T06:47:45.663Z,33.67
2023-02-11T06:50:18.713Z,32.42
2023-02-11T06:52:53.904Z,26.05
2023-02-11T06:55:26.849Z,29.85
2023-02-11T06:58:00.370Z,26.95
2023-02-11T07:00:33.355Z,28.73
2023-02-11T07:03:07.739Z,28.55
2023-02-11T07:05:42.972Z,24.27
2023-02-11T07:08:17.773Z,34.17
2023-02-11T07:10:50.362Z,33.95
2023-02-11T07:13:20.528Z,25.92
2023-02-11T07:15:50.657Z,23.33
2023-02-11T07:18:26.953Z,25.27
2023-02-11T07:20:57.742Z,30.45
2023-02-11T07:23:27.977Z,25.90
2023-02-11T07:26:08.610Z,27.00
2023-02-11T07:28:42.599Z,24.02
2023-02-11T07:31:21.338Z,25.63
2023-02-11T07:34:02.578Z,29.52
2023-02-11T07:36:35.328Z,26.30
2023-02-11T07:39:09.923Z,29.95
2023-02-11T07:41:42.967Z,27.58
2023-02-11T07:44:17.331Z,30.70
2023-02-11T07:46:50.606Z,32.92
2023-02-11T07:49:23.735Z,33.60
2023-02-11T07:51:56.412Z,28.23
2023-02-11T07:54:26.556Z,29.25
2023-02-11T07:56:56.740Z,29.02
2023-02-11T07:59:27.561Z,28.35
2023-02-11T08:02:00.422Z,34.20
2023-02-11T08:04:33.991Z,27.52
2023-02-11T08:07:07.354Z,25.42
2023-02-11T08:09:41.295Z,30.35
2023-02-11T08:12:14.355Z,36.13
2023-02-11T08:14:45.003Z,34.75
2023-02-11T08:17:14.843Z,29.65
2023-02-11T08:19:41.274Z,37.70
2023-02-11T08:22:18.297Z,31.25
2023-02-11T08:24:50.098Z,24.05
2023-02-11T08:27:30.192Z,25.60
2023-02-11T08:30:00.303Z,27.75
2023-02-11T08:32:31.154Z,27.73
2023-02-11T08:35:04.619Z,33.45
2023-02-11T08:37:37.601Z,32.05
2023-02-11T08:40:10.700Z,28.67
2023-02-11T08:42:45.055Z,29.10
2023-02-11T08:45:18.427Z,36.40
2023-02-11T08:47:52.321Z,34.72
2023-02-11T08:50:27.966Z,34.15
2023-02-11T08:53:00.626Z,35.78
2023-02-11T08:55:33.380Z,26.88
2023-02-11T08:58:07.073Z,29.58
2023-02-11T09:00:40.414Z,34.17
2023-02-11T09:03:14.427Z,33.15
2023-02-11T09:05:53.247Z,33.58
2023-02-11T09:08:27.235Z,30.83
2023-02-11T09:11:00.486Z,33.95
2023-02-11T09:13:34.537Z,26.63
2023-02-11T09:16:07.641Z,32.55
2023-02-11T09:18:41.899Z,26.73
2023-02-11T09:21:15.839Z,28.67
2023-02-11T09:23:48.344Z,30.38
2023-02-11T09:26:27.427Z,29.23
2023-02-11T09:29:02.920Z,31.10
2023-02-11T09:31:35.533Z,24.55
2023-02-11T09:34:10.276Z,27.58
2023-02-11T09:36:43.371Z,24.25
2023-02-11T09:39:23.942Z,19.23
2023-02-11T09:42:19.700Z,24.02
2023-02-11T09:44:54.847Z,27.55
2023-02-11T09:47:39.581Z,34.60
2023-02-11T09:50:20.350Z,23.15
2023-02-11T09:53:00.425Z,27.10
2023-02-11T09:55:45.878Z,25.20
2023-02-11T09:58:31.764Z,33.97
2023-02-11T10:01:12.201Z,33.03
2023-02-11T10:04:12.926Z,27.30
2023-02-11T10:06:56.693Z,26.13
2023-02-11T10:09:44.214Z,26.88
2023-02-11T10:12:33.946Z,24.98
2023-02-11T10:15:25.648Z,24.65
2023-02-11T10:18:16.661Z,23.65
2023-02-11T10:21:07.130Z,30.33
2023-02-11T10:23:46.651Z,30.67
2023-02-11T10:26:19.917Z,24.58
2023-02-11T10:28:57.631Z,30.88
2023-02-11T10:31:41.688Z,28.33
2023-02-11T10:34:17.649Z,29.85
2023-02-11T10:36:50.513Z,22.95
2023-02-11T10:39:30.416Z,32.00
2023-02-11T10:42:08.768Z,29.05
2023-02-11T10:44:46.059Z,29.48
2023-02-11T10:47:23.777Z,29.77
2023-02-11T10:49:57.963Z,23.17
2023-02-11T10:52:30.631Z,22.60
2023-02-11T10:55:05.293Z,18.73
2023-02-11T10:57:44.546Z,26.85
2023-02-11T11:00:20.769Z,27.27
2023-02-11T11:02:59.433Z,25.88
2023-02-11T11:05:39.924Z,21.95
2023-02-11T11:08:13.184Z,25.65
2023-02-11T11:10:51.219Z,20.67
2023-02-11T11:13:30.779Z,18.00
2023-02-11T11:16:16.424Z,24.33
2023-02-11T11:18:52.520Z,22.73
2023-02-11T11:21:48.209Z,18.60
2023-02-11T11:24:34.400Z,17.35
2023-02-11T11:27:09.126Z,18.15
2023-02-11T11:29:55.217Z,17.85
2023-02-11T11:32:36.377Z,22.70
2023-02-11T11:35:29.469Z,20.55
2023-02-11T11:38:07.276Z,18.50
2023-02-11T11:40:40.720Z,22.23
2023-02-11T11:43:17.349Z,13.05
2023-02-11T11:45:58.816Z,15.65
2023-02-11T11:48:42.862Z,18.73
2023-02-11T11:51:16.005Z,14.00
2023-02-11T11:54:00.177Z,13.52
2023-02-11T11:56:39.200Z,16.70
2023-02-11T11:59:19.261Z,13.95
2023-02-11T12:02:03.377Z,16.45
2023-02-11T12:05:04.719Z,17.63
2023-02-11T12:08:05.719Z,13.88
2023-02-11T12:10:58.347Z,11.68
2023-02-11T12:13:53.876Z,12.38
2023-02-11T12:16:40.257Z,13.00
2023-02-11T12:19:34.378Z,14.38
2023-02-11T12:22:32.835Z,19.75
2023-02-11T12:25:43.389Z,12.30
2023-02-11T12:28:58.109Z,16.73
2023-02-11T12:31:40.611Z,15.27
2023-02-11T12:34:32.685Z,12.85
2023-02-11T12:37:18.549Z,12.77
2023-02-11T12:39:58.124Z,12.68
2023-02-11T12:43:05.386Z,13.70
2023-02-11T12:45:54.513Z,14.38
2023-02-11T12:48:35.644Z,11.65
2023-02-11T12:51:41.822Z,12.98
2023-02-11T12:54:20.806Z,12.70
2023-02-11T12:57:00.052Z,11.43
2023-02-11T12:59:33.354Z,10.05
2023-02-11T13:02:20.165Z,14.20
2023-02-11T13:04:57.263Z,9.00
2023-02-11T13:07:37.438Z,12.20
2023-02-11T13:10:13.416Z,17.15
2023-02-11T13:13:04.798Z,15.25
2023-02-11T13:15:31.678Z,15.45
2023-02-11T13:18:13.405Z,14.50
2023-02-11T13:20:50.134Z,16.75
2023-02-11T13:23:42.651Z,14.85
2023-02-11T13:26:24.487Z,16.13
2023-02-11T13:29:34.601Z,15.88
2023-02-11T13:32:14.439Z,15.40
2023-02-11T13:34:43.601Z,16.00
2023-02-11T13:37:23.027Z,15.80
2023-02-11T13:40:02.189Z,16.90
2023-02-11T13:42:31.076Z,15.65
2023-02-11T14:07:44.182Z,25.75
2023-02-11T14:10:38.554Z,23.27
2023-02-11T14:13:17.695Z,23.38
2023-02-11T14:15:46.178Z,14.38
2023-02-11T14:18:37.420Z,17.35
2023-02-11T14:21:13.278Z,20.70
2023-02-11T14:23:40.755Z,18.85
2023-02-11T14:26:20.088Z,16.35
2023-02-11T14:29:01.786Z,13.80
2023-02-11T14:31:55.600Z,18.33
2023-02-11T14:34:40.888Z,15.52
2023-02-11T14:37:23.438Z,19.52
2023-02-11T14:40:18.513Z,16.85
2023-02-11T14:42:45.232Z,14.75
2023-02-11T14:45:25.560Z,10.18
2023-02-11T14:48:08.069Z,15.15
2023-02-11T14:50:43.276Z,19.17
2023-02-11T14:53:18.907Z,14.27
2023-02-11T14:55:54.758Z,15.38
2023-02-11T14:58:26.893Z,16.60
2023-02-11T15:00:59.262Z,15.45
2023-02-11T15:03:41.190Z,12.95
2023-02-11T15:06:07.513Z,16.45
2023-02-11T15:08:41.978Z,14.70
2023-02-11T15:11:12.033Z,15.70
2023-02-11T15:13:38.920Z,17.25
2023-02-11T15:16:09.173Z,12.43
2023-02-11T15:18:40.932Z,16.60
2023-02-11T15:21:08.214Z,13.63
2023-02-11T15:23:34.887Z,10.98
2023-02-11T15:26:05.508Z,13.00
2023-02-11T15:28:34.377Z,15.85
2023-02-11T15:31:15.030Z,12.90
2023-02-11T15:33:41.453Z,11.77
2023-02-11T15:36:14.222Z,13.30
2023-02-11T15:38:40.937Z,16.20
2023-02-11T15:41:08.383Z,18.83
2023-02-11T15:43:50.951Z,21.38
2023-02-11T15:46:21.173Z,17.65
2023-02-11T15:48:50.484Z,19.73
2023-02-11T15:51:32.796Z,26.02
2023-02-11T15:54:02.016Z,30.50
2023-02-11T15:56:34.629Z,26.45
2023-02-11T15:59:25.674Z,32.50
2023-02-11T16:01:53.269Z,26.45
2023-02-11T16:04:27.635Z,29.33
2023-02-11T16:06:55.616Z,22.20
2023-02-11T16:09:30.490Z,20.48
2023-02-11T16:11:59.189Z,23.85
2023-02-11T16:14:31.278Z,26.15
2023-02-11T16:17:09.356Z,19.98
2023-02-11T16:19:42.812Z,24.35
2023-02-11T16:22:14.679Z,16.13
2023-02-11T16:24:41.257Z,26.38
2023-02-11T16:27:20.624Z,15.38
2023-02-11T16:29:48.784Z,18.92
2023-02-11T16:32:19.432Z,23.23
2023-02-11T16:34:46.080Z,20.13
2023-02-11T16:37:12.456Z,26.77
2023-02-11T16:39:38.840Z,22.13
2023-02-11T16:42:07.706Z,23.33
2023-02-11T16:44:34.856Z,21.95
2023-02-11T16:47:05.846Z,20.00
2023-02-11T16:49:42.090Z,20.02
2023-02-11T16:52:13.507Z,20.70
2023-02-11T16:54:39.889Z,17.80
2023-02-11T16:57:14.198Z,19.25
2023-02-11T16:59:40.560Z,24.27
2023-02-11T17:02:15.603Z,25.13
2023-02-11T17:04:42.823Z,21.73
2023-02-11T17:07:09.216Z,22.52
2023-02-11T17:09:35.585Z,22.25
2023-02-11T17:12:01.993Z,23.25
2023-02-11T17:14:28.349Z,25.80
2023-02-11T17:16:54.719Z,20.90
2023-02-11T17:19:21.678Z,27.20
2023-02-11T17:21:50.902Z,27.35
2023-02-11T17:24:18.004Z,22.70
2023-02-11T17:26:45.462Z,25.73
2023-02-11T17:29:15.236Z,18.77
2023-02-11T17:31:41.966Z,29.70
2023-02-11T17:34:08.670Z,25.50
2023-02-11T17:36:35.356Z,31.20
2023-02-11T17:39:02.851Z,23.42
2023-02-11T17:41:29.280Z,27.85
2023-02-11T17:43:59.869Z,29.10
2023-02-11T17:46:28.493Z,23.13
2023-02-11T17:48:55.998Z,27.65
2023-02-11T17:51:36.906Z,32.97
2023-02-11T17:54:21.622Z,27.10
2023-02-11T17:56:50.639Z,27.60
2023-02-11T17:59:17.205Z,39.65
2023-02-11T18:01:43.901Z,26.60
2023-02-11T18:04:13.447Z,28.00
2023-02-11T18:06:39.921Z,26.85
2023-02-11T18:09:07.195Z,26.83
2023-02-11T18:11:35.889Z,26.63
2023-02-11T18:14:04.428Z,24.88
2023-02-11T18:16:30.868Z,21.90
2023-02-11T18:18:58.459Z,33.60
2023-02-11T18:21:24.835Z,23.25
2023-02-11T18:23:51.812Z,29.92
2023-02-11T18:26:20.384Z,26.15
2023-02-11T18:28:47.412Z,26.98
2023-02-11T18:31:14.391Z,22.48
2023-02-11T18:33:41.859Z,34.83
2023-02-11T18:36:17.304Z,32.97
2023-02-11T18:38:46.487Z,25.52
2023-02-11T18:41:13.869Z,35.17
2023-02-11T18:43:40.533Z,33.80
2023-02-11T18:46:10.113Z,36.03
2023-02-11T18:48:37.487Z,30.83
2023-02-11T18:51:09.762Z,34.80
2023-02-11T18:53:36.501Z,27.70
2023-02-11T18:56:13.892Z,33.38
2023-02-11T18:58:40.638Z,25.33
2023-02-11T19:01:27.315Z,26.38
2023-02-11T19:03:55.929Z,24.45
2023-02-11T19:06:25.484Z,28.65
2023-02-11T19:08:53.713Z,26.80
2023-02-11T19:11:20.257Z,29.38
2023-02-11T19:13:51.245Z,28.38
2023-02-11T19:16:19.608Z,27.52
2023-02-11T19:18:45.993Z,22.02
2023-02-11T19:21:12.817Z,29.20
2023-02-11T19:23:39.420Z,34.13
2023-02-11T19:26:06.325Z,35.40
2023-02-11T19:28:33.481Z,31.25
2023-02-11T19:31:06.567Z,27.48
2023-02-11T19:33:32.986Z,26.20
2023-02-11T19:36:07.964Z,21.15
2023-02-11T19:38:35.246Z,19.17
2023-02-11T19:41:01.650Z,24.33
2023-02-11T19:43:28.057Z,25.88
2023-02-11T19:45:57.508Z,20.10
2023-02-11T19:48:24.435Z,28.10
2023-02-11T19:50:50.902Z,21.83
2023-02-11T19:53:17.270Z,23.15
2023-02-11T19:55:43.909Z,31.20
2023-02-11T19:58:10.283Z,21.73
2023-02-11T20:00:36.679Z,24.58
2023-02-11T20:03:03.144Z,23.88
2023-02-11T20:05:30.533Z,22.55
2023-02-11T20:07:57.502Z,30.88
2023-02-11T20:10:25.083Z,30.27
2023-02-11T20:12:51.486Z,23.95
2023-02-11T20:15:18.253Z,32.63
2023-02-11T20:17:44.648Z,27.38
2023-02-11T20:20:12.739Z,24.25
2023-02-11T20:22:39.090Z,29.33
2023-02-11T20:25:05.863Z,30.88
2023-02-11T20:27:33.262Z,31.45
2023-02-11T20:29:59.804Z,29.48
2023-02-11T20:32:26.163Z,30.42
2023-02-11T20:34:52.566Z,31.60
2023-02-11T20:37:18.934Z,22.33
2023-02-11T20:39:45.349Z,33.03
2023-02-11T20:42:12.056Z,24.42
2023-02-11T20:44:38.836Z,28.17
2023-02-11T20:47:05.228Z,29.15
2023-02-11T20:49:31.666Z,28.95
2023-02-11T20:51:58.494Z,24.95
2023-02-11T20:54:25.549Z,27.48
2023-02-11T20:56:53.826Z,34.13
2023-02-11T20:59:21.116Z,28.50
2023-02-11T21:01:49.886Z,33.40
2023-02-11T21:04:19.362Z,30.17
2023-02-11T21:06:48.848Z,26.52
2023-02-11T21:09:19.760Z,37.92
2023-02-11T21:11:47.182Z,34.80
2023-02-11T21:14:14.429Z,32.65
2023-02-11T21:16:41.344Z,31.55
2023-02-11T21:19:07.756Z,42.28
2023-02-11T21:21:38.218Z,30.27
2023-02-11T21:24:05.727Z,41.10
2023-02-11T21:26:32.790Z,34.92
2023-02-11T21:28:59.429Z,43.63
2023-02-11T21:31:28.336Z,34.63
2023-02-11T21:33:55.383Z,35.88
2023-02-11T21:36:22.826Z,40.97
2023-02-11T21:38:49.959Z,39.08
2023-02-11T21:41:17.143Z,46.25
2023-02-11T21:43:43.741Z,37.65
2023-02-11T21:46:14.044Z,54.03
2023-02-11T21:48:40.443Z,36.25
2023-02-11T21:51:11.649Z,41.92
2023-02-11T21:53:38.053Z,43.03
2023-02-11T21:56:10.200Z,38.70
2023-02-11T21:58:37.767Z,33.60
2023-02-11T22:01:25.470Z,41.72
2023-02-11T22:03:52.177Z,37.45
2023-02-11T22:06:27.665Z,42.50
2023-02-11T22:08:54.986Z,41.50
2023-02-11T22:11:21.377Z,37.70
2023-02-11T22:13:47.930Z,31.55
2023-02-11T22:16:16.474Z,38.78
2023-02-11T22:18:45.665Z,38.28
2023-02-11T22:21:15.688Z,31.25
2023-02-11T22:23:42.967Z,24.92
2023-02-11T22:26:18.197Z,34.75
2023-02-11T22:28:44.926Z,33.08
2023-02-11T22:31:13.763Z,29.30
2023-02-11T22:33:40.773Z,34.55
2023-02-11T22:36:12.404Z,24.58
2023-02-11T22:38:38.845Z,26.83
2023-02-11T22:41:08.653Z,33.00
2023-02-11T22:43:35.641Z,30.25
2023-02-11T22:46:07.704Z,23.77
2023-02-11T22:48:35.587Z,25.50
2023-02-11T22:51:17.185Z,34.28
2023-02-11T22:53:44.329Z,26.25
2023-02-11T22:56:15.334Z,22.92
2023-02-11T22:58:42.784Z,23.77
2023-02-11T23:01:09.162Z,23.45
2023-02-11T23:03:36.123Z,33.00
2023-02-11T23:06:03.033Z,25.77
2023-02-11T23:08:30.386Z,20.50
2023-02-11T23:11:03.167Z,26.38
2023-02-11T23:13:29.553Z,22.13
2023-02-11T23:15:56.303Z,19.60
2023-02-11T23:18:22.876Z,17.83
2023-02-11T23:20:49.228Z,18.27
2023-02-11T23:23:15.581Z,27.40
2023-02-11T23:25:43.994Z,22.45
2023-02-11T23:28:11.505Z,22.25
2023-02-11T23:30:38.442Z,19.60
2023-02-11T23:33:04.828Z,29.23
2023-02-11T23:35:31.310Z,23.02
2023-02-11T23:37:57.710Z,19.48
2023-02-11T23:40:24.116Z,23.27
2023-02-11T23:42:50.493Z,20.73
2023-02-11T23:45:17.165Z,17.05
2023-02-11T23:47:43.595Z,20.45
2023-02-11T23:50:10.695Z,21.02
2023-02-11T23:52:37.402Z,17.85
2023-02-11T23:55:04.527Z,13.60
2023-02-11T23:57:34.883Z,13.80
